sensor_id;sensor_type;location;lat;lon;timestamp;P1;durP1;ratioP1;P2;durP2;ratioP2
55146;SDS011;41039;49.830;23.988;2024-03-07T00:02:09;2.80;;;2.25;;
55146;SDS011;41039;49.830;23.988;2024-03-07T00:04:34;3.70;;;2.40;;
55146;SDS011;41039;49.830;23.988;2024-03-07T00:07:01;2.88;;;2.40;;
55146;SDS011;41039;49.830;23.988;2024-03-07T00:09:27;4.45;;;2.63;;
55146;SDS011;41039;49.830;23.988;2024-03-07T00:11:52;3.40;;;2.78;;
55146;SDS011;41039;49.830;23.988;2024-03-07T00:14:17;3.63;;;3.00;;
55146;SDS011;41039;49.830;23.988;2024-03-07T00:16:43;4.05;;;2.70;;
55146;SDS011;41039;49.830;23.988;2024-03-07T00:19:08;3.42;;;2.58;;
55146;SDS011;41039;49.830;23.988;2024-03-07T00:21:33;3.10;;;2.60;;
55146;SDS011;41039;49.830;23.988;2024-03-07T00:23:58;3.07;;;2.60;;
55146;SDS011;41039;49.830;23.988;2024-03-07T00:26:24;3.80;;;3.08;;
55146;SDS011;41039;49.830;23.988;2024-03-07T00:28:49;4.47;;;3.00;;
55146;SDS011;41039;49.830;23.988;2024-03-07T00:31:16;3.20;;;2.60;;
55146;SDS011;41039;49.830;23.988;2024-03-07T00:33:41;2.72;;;2.42;;
55146;SDS011;41039;49.830;23.988;2024-03-07T00:36:07;2.95;;;2.40;;
55146;SDS011;41039;49.830;23.988;2024-03-07T00:38:32;3.38;;;2.28;;
55146;SDS011;41039;49.830;23.988;2024-03-07T00:40:57;3.40;;;2.67;;
55146;SDS011;41039;49.830;23.988;2024-03-07T00:43:24;3.35;;;2.65;;
55146;SDS011;41039;49.830;23.988;2024-03-07T00:45:50;3.38;;;2.60;;
55146;SDS011;41039;49.830;23.988;2024-03-07T00:48:15;4.40;;;2.63;;
55146;SDS011;41039;49.830;23.988;2024-03-07T00:50:41;2.92;;;2.50;;
55146;SDS011;41039;49.830;23.988;2024-03-07T00:53:07;3.33;;;3.03;;
55146;SDS011;41039;49.830;23.988;2024-03-07T00:55:33;4.28;;;2.90;;
55146;SDS011;41039;49.830;23.988;2024-03-07T00:57:58;3.90;;;2.97;;
55146;SDS011;41039;49.830;23.988;2024-03-07T01:00:23;3.30;;;2.47;;
55146;SDS011;41039;49.830;23.988;2024-03-07T01:02:48;4.38;;;3.20;;
55146;SDS011;41039;49.830;23.988;2024-03-07T01:05:14;3.70;;;3.17;;
55146;SDS011;41039;49.830;23.988;2024-03-07T01:07:39;3.67;;;2.65;;
55146;SDS011;41039;49.830;23.988;2024-03-07T01:10:06;3.58;;;3.15;;
55146;SDS011;41039;49.830;23.988;2024-03-07T01:12:32;3.97;;;3.22;;
55146;SDS011;41039;49.830;23.988;2024-03-07T01:14:59;4.05;;;3.10;;
55146;SDS011;41039;49.830;23.988;2024-03-07T01:17:25;4.07;;;3.33;;
55146;SDS011;41039;49.830;23.988;2024-03-07T01:19:50;4.60;;;3.28;;
55146;SDS011;41039;49.830;23.988;2024-03-07T01:22:15;3.47;;;2.77;;
55146;SDS011;41039;49.830;23.988;2024-03-07T01:24:41;4.20;;;3.20;;
55146;SDS011;41039;49.830;23.988;2024-03-07T01:27:06;3.90;;;3.37;;
55146;SDS011;41039;49.830;23.988;2024-03-07T01:29:31;3.50;;;3.00;;
55146;SDS011;41039;49.830;23.988;2024-03-07T01:31:56;3.95;;;3.10;;
55146;SDS011;41039;49.830;23.988;2024-03-07T01:34:22;3.65;;;2.92;;
55146;SDS011;41039;49.830;23.988;2024-03-07T01:36:47;4.57;;;3.20;;
55146;SDS011;41039;49.830;23.988;2024-03-07T01:39:12;3.87;;;3.30;;
55146;SDS011;41039;49.830;23.988;2024-03-07T01:41:37;4.55;;;3.28;;
55146;SDS011;41039;49.830;23.988;2024-03-07T01:44:03;4.07;;;3.08;;
55146;SDS011;41039;49.830;23.988;2024-03-07T01:46:28;3.75;;;3.35;;
55146;SDS011;41039;49.830;23.988;2024-03-07T01:48:54;4.25;;;3.65;;
55146;SDS011;41039;49.830;23.988;2024-03-07T01:51:19;4.13;;;3.38;;
55146;SDS011;41039;49.830;23.988;2024-03-07T01:53:46;3.80;;;3.05;;
55146;SDS011;41039;49.830;23.988;2024-03-07T01:56:12;4.22;;;3.15;;
55146;SDS011;41039;49.830;23.988;2024-03-07T01:58:37;4.40;;;3.45;;
55146;SDS011;41039;49.830;23.988;2024-03-07T02:01:02;3.97;;;3.40;;
55146;SDS011;41039;49.830;23.988;2024-03-07T02:03:28;3.88;;;3.05;;
55146;SDS011;41039;49.830;23.988;2024-03-07T02:05:53;3.70;;;3.30;;
55146;SDS011;41039;49.830;23.988;2024-03-07T02:08:18;3.97;;;3.58;;
55146;SDS011;41039;49.830;23.988;2024-03-07T02:10:44;4.13;;;3.40;;
55146;SDS011;41039;49.830;23.988;2024-03-07T02:13:11;4.28;;;3.55;;
55146;SDS011;41039;49.830;23.988;2024-03-07T02:15:36;3.88;;;3.45;;
55146;SDS011;41039;49.830;23.988;2024-03-07T02:18:01;4.85;;;3.85;;
55146;SDS011;41039;49.830;23.988;2024-03-07T02:20:27;5.05;;;3.92;;
55146;SDS011;41039;49.830;23.988;2024-03-07T02:22:53;4.28;;;3.63;;
55146;SDS011;41039;49.830;23.988;2024-03-07T02:25:18;3.58;;;2.95;;
55146;SDS011;41039;49.830;23.988;2024-03-07T02:27:44;4.47;;;3.75;;
55146;SDS011;41039;49.830;23.988;2024-03-07T02:30:10;4.25;;;3.72;;
55146;SDS011;41039;49.830;23.988;2024-03-07T02:32:37;4.40;;;3.65;;
55146;SDS011;41039;49.830;23.988;2024-03-07T02:35:03;4.20;;;3.63;;
55146;SDS011;41039;49.830;23.988;2024-03-07T02:37:28;4.30;;;3.20;;
55146;SDS011;41039;49.830;23.988;2024-03-07T02:39:54;4.20;;;3.37;;
55146;SDS011;41039;49.830;23.988;2024-03-07T02:42:19;4.30;;;3.47;;
55146;SDS011;41039;49.830;23.988;2024-03-07T02:44:44;5.03;;;3.70;;
55146;SDS011;41039;49.830;23.988;2024-03-07T02:47:10;4.78;;;3.80;;
55146;SDS011;41039;49.830;23.988;2024-03-07T02:49:35;4.50;;;3.53;;
55146;SDS011;41039;49.830;23.988;2024-03-07T02:52:00;4.27;;;3.07;;
55146;SDS011;41039;49.830;23.988;2024-03-07T02:54:25;4.68;;;4.07;;
55146;SDS011;41039;49.830;23.988;2024-03-07T02:56:50;4.65;;;3.30;;
55146;SDS011;41039;49.830;23.988;2024-03-07T02:59:16;3.87;;;3.37;;
55146;SDS011;41039;49.830;23.988;2024-03-07T03:01:41;4.20;;;3.40;;
55146;SDS011;41039;49.830;23.988;2024-03-07T03:04:06;4.75;;;3.72;;
55146;SDS011;41039;49.830;23.988;2024-03-07T03:06:32;4.85;;;3.83;;
55146;SDS011;41039;49.830;23.988;2024-03-07T03:08:57;4.45;;;3.58;;
55146;SDS011;41039;49.830;23.988;2024-03-07T03:11:23;4.35;;;3.78;;
55146;SDS011;41039;49.830;23.988;2024-03-07T03:13:49;4.00;;;3.58;;
55146;SDS011;41039;49.830;23.988;2024-03-07T03:16:14;4.65;;;3.45;;
55146;SDS011;41039;49.830;23.988;2024-03-07T03:18:40;4.55;;;3.83;;
55146;SDS011;41039;49.830;23.988;2024-03-07T03:21:06;4.93;;;3.60;;
55146;SDS011;41039;49.830;23.988;2024-03-07T03:23:31;4.72;;;4.00;;
55146;SDS011;41039;49.830;23.988;2024-03-07T03:25:56;4.50;;;3.75;;
55146;SDS011;41039;49.830;23.988;2024-03-07T03:28:22;4.28;;;3.40;;
55146;SDS011;41039;49.830;23.988;2024-03-07T03:30:47;4.65;;;3.70;;
55146;SDS011;41039;49.830;23.988;2024-03-07T03:33:12;4.68;;;3.85;;
55146;SDS011;41039;49.830;23.988;2024-03-07T03:35:38;5.75;;;3.85;;
55146;SDS011;41039;49.830;23.988;2024-03-07T03:38:03;4.32;;;3.50;;
55146;SDS011;41039;49.830;23.988;2024-03-07T03:40:28;4.75;;;4.05;;
55146;SDS011;41039;49.830;23.988;2024-03-07T03:42:54;4.80;;;3.55;;
55146;SDS011;41039;49.830;23.988;2024-03-07T03:45:19;4.40;;;3.50;;
55146;SDS011;41039;49.830;23.988;2024-03-07T03:47:44;4.32;;;3.67;;
55146;SDS011;41039;49.830;23.988;2024-03-07T03:50:10;4.15;;;3.35;;
55146;SDS011;41039;49.830;23.988;2024-03-07T03:52:36;4.40;;;4.00;;
55146;SDS011;41039;49.830;23.988;2024-03-07T03:55:02;5.00;;;3.53;;
55146;SDS011;41039;49.830;23.988;2024-03-07T03:57:28;4.43;;;3.97;;
55146;SDS011;41039;49.830;23.988;2024-03-07T03:59:53;5.03;;;3.70;;
55146;SDS011;41039;49.830;23.988;2024-03-07T04:02:19;3.72;;;3.20;;
55146;SDS011;41039;49.830;23.988;2024-03-07T04:04:44;4.45;;;3.60;;
55146;SDS011;41039;49.830;23.988;2024-03-07T04:07:11;4.00;;;3.45;;
55146;SDS011;41039;49.830;23.988;2024-03-07T04:09:37;4.93;;;3.65;;
55146;SDS011;41039;49.830;23.988;2024-03-07T04:12:02;3.92;;;3.28;;
55146;SDS011;41039;49.830;23.988;2024-03-07T04:14:27;5.05;;;3.90;;
55146;SDS011;41039;49.830;23.988;2024-03-07T04:16:53;4.50;;;3.40;;
55146;SDS011;41039;49.830;23.988;2024-03-07T04:19:21;4.38;;;3.47;;
55146;SDS011;41039;49.830;23.988;2024-03-07T04:21:47;4.03;;;3.40;;
55146;SDS011;41039;49.830;23.988;2024-03-07T04:24:12;3.87;;;3.13;;
55146;SDS011;41039;49.830;23.988;2024-03-07T04:26:37;3.92;;;3.53;;
55146;SDS011;41039;49.830;23.988;2024-03-07T04:29:02;4.43;;;3.47;;
55146;SDS011;41039;49.830;23.988;2024-03-07T04:31:28;5.00;;;3.60;;
55146;SDS011;41039;49.830;23.988;2024-03-07T04:33:53;3.70;;;3.00;;
55146;SDS011;41039;49.830;23.988;2024-03-07T04:36:18;4.57;;;3.40;;
55146;SDS011;41039;49.830;23.988;2024-03-07T04:38:43;4.03;;;2.95;;
55146;SDS011;41039;49.830;23.988;2024-03-07T04:41:13;3.92;;;3.05;;
55146;SDS011;41039;49.830;23.988;2024-03-07T04:43:40;4.15;;;3.47;;
55146;SDS011;41039;49.830;23.988;2024-03-07T04:46:05;3.78;;;3.22;;
55146;SDS011;41039;49.830;23.988;2024-03-07T04:48:31;4.22;;;3.38;;
55146;SDS011;41039;49.830;23.988;2024-03-07T04:50:57;3.78;;;3.40;;
55146;SDS011;41039;49.830;23.988;2024-03-07T04:53:23;4.35;;;2.97;;
55146;SDS011;41039;49.830;23.988;2024-03-07T04:55:48;4.35;;;3.50;;
55146;SDS011;41039;49.830;23.988;2024-03-07T04:58:13;3.65;;;3.20;;
55146;SDS011;41039;49.830;23.988;2024-03-07T05:00:39;4.47;;;3.57;;
55146;SDS011;41039;49.830;23.988;2024-03-07T05:03:04;4.65;;;3.40;;
55146;SDS011;41039;49.830;23.988;2024-03-07T05:05:29;3.90;;;3.13;;
55146;SDS011;41039;49.830;23.988;2024-03-07T05:07:55;3.58;;;3.08;;
55146;SDS011;41039;49.830;23.988;2024-03-07T05:10:23;4.30;;;3.50;;
55146;SDS011;41039;49.830;23.988;2024-03-07T05:12:48;4.45;;;3.47;;
55146;SDS011;41039;49.830;23.988;2024-03-07T05:15:13;3.90;;;3.33;;
55146;SDS011;41039;49.830;23.988;2024-03-07T05:17:39;3.95;;;3.30;;
55146;SDS011;41039;49.830;23.988;2024-03-07T05:20:07;4.75;;;3.50;;
55146;SDS011;41039;49.830;23.988;2024-03-07T05:22:41;4.57;;;3.45;;
55146;SDS011;41039;49.830;23.988;2024-03-07T05:25:09;4.97;;;3.70;;
55146;SDS011;41039;49.830;23.988;2024-03-07T05:27:34;4.07;;;3.45;;
55146;SDS011;41039;49.830;23.988;2024-03-07T05:30:01;3.92;;;3.38;;
55146;SDS011;41039;49.830;23.988;2024-03-07T05:32:26;3.90;;;3.25;;
55146;SDS011;41039;49.830;23.988;2024-03-07T05:34:52;3.80;;;3.25;;
55146;SDS011;41039;49.830;23.988;2024-03-07T05:37:20;4.60;;;3.40;;
55146;SDS011;41039;49.830;23.988;2024-03-07T05:39:49;3.80;;;3.40;;
55146;SDS011;41039;49.830;23.988;2024-03-07T05:42:14;3.95;;;3.10;;
55146;SDS011;41039;49.830;23.988;2024-03-07T05:44:40;4.18;;;3.45;;
55146;SDS011;41039;49.830;23.988;2024-03-07T05:47:06;5.53;;;3.88;;
55146;SDS011;41039;49.830;23.988;2024-03-07T05:49:32;4.03;;;3.40;;
55146;SDS011;41039;49.830;23.988;2024-03-07T05:51:57;4.18;;;3.30;;
55146;SDS011;41039;49.830;23.988;2024-03-07T05:54:23;4.43;;;3.30;;
55146;SDS011;41039;49.830;23.988;2024-03-07T05:56:48;4.67;;;2.87;;
55146;SDS011;41039;49.830;23.988;2024-03-07T05:59:13;3.85;;;3.20;;
55146;SDS011;41039;49.830;23.988;2024-03-07T06:01:39;4.03;;;3.15;;
55146;SDS011;41039;49.830;23.988;2024-03-07T06:04:06;3.97;;;3.33;;
55146;SDS011;41039;49.830;23.988;2024-03-07T06:06:32;3.88;;;3.13;;
55146;SDS011;41039;49.830;23.988;2024-03-07T06:09:01;4.40;;;3.30;;
55146;SDS011;41039;49.830;23.988;2024-03-07T06:11:32;4.07;;;3.25;;
55146;SDS011;41039;49.830;23.988;2024-03-07T06:13:57;4.03;;;3.50;;
55146;SDS011;41039;49.830;23.988;2024-03-07T06:16:23;5.38;;;3.42;;
55146;SDS011;41039;49.830;23.988;2024-03-07T06:18:49;3.53;;;3.05;;
55146;SDS011;41039;49.830;23.988;2024-03-07T06:21:14;3.95;;;3.20;;
55146;SDS011;41039;49.830;23.988;2024-03-07T06:23:39;3.85;;;3.10;;
55146;SDS011;41039;49.830;23.988;2024-03-07T06:26:04;4.10;;;3.50;;
55146;SDS011;41039;49.830;23.988;2024-03-07T06:28:38;3.45;;;3.15;;
55146;SDS011;41039;49.830;23.988;2024-03-07T06:31:04;4.10;;;3.20;;
55146;SDS011;41039;49.830;23.988;2024-03-07T06:33:32;4.03;;;3.28;;
55146;SDS011;41039;49.830;23.988;2024-03-07T06:35:58;3.75;;;3.10;;
55146;SDS011;41039;49.830;23.988;2024-03-07T06:38:23;4.68;;;3.30;;
55146;SDS011;41039;49.830;23.988;2024-03-07T06:40:49;3.67;;;2.95;;
55146;SDS011;41039;49.830;23.988;2024-03-07T06:43:14;3.75;;;2.90;;
55146;SDS011;41039;49.830;23.988;2024-03-07T06:45:39;4.07;;;3.17;;
55146;SDS011;41039;49.830;23.988;2024-03-07T06:48:06;4.07;;;3.30;;
55146;SDS011;41039;49.830;23.988;2024-03-07T06:50:33;3.47;;;2.90;;
55146;SDS011;41039;49.830;23.988;2024-03-07T06:52:58;3.92;;;3.20;;
55146;SDS011;41039;49.830;23.988;2024-03-07T06:55:23;3.97;;;3.55;;
55146;SDS011;41039;49.830;23.988;2024-03-07T06:57:48;3.75;;;3.17;;
55146;SDS011;41039;49.830;23.988;2024-03-07T07:00:14;3.88;;;3.22;;
55146;SDS011;41039;49.830;23.988;2024-03-07T07:02:45;4.15;;;3.55;;
55146;SDS011;41039;49.830;23.988;2024-03-07T07:05:10;4.00;;;3.30;;
55146;SDS011;41039;49.830;23.988;2024-03-07T07:07:46;4.63;;;3.58;;
55146;SDS011;41039;49.830;23.988;2024-03-07T07:10:12;4.20;;;3.20;;
55146;SDS011;41039;49.830;23.988;2024-03-07T07:12:47;3.92;;;3.20;;
55146;SDS011;41039;49.830;23.988;2024-03-07T07:15:18;4.63;;;3.70;;
55146;SDS011;41039;49.830;23.988;2024-03-07T07:17:46;4.30;;;3.67;;
55146;SDS011;41039;49.830;23.988;2024-03-07T07:20:12;3.90;;;3.20;;
55146;SDS011;41039;49.830;23.988;2024-03-07T07:22:40;4.30;;;3.33;;
55146;SDS011;41039;49.830;23.988;2024-03-07T07:25:05;4.20;;;3.38;;
55146;SDS011;41039;49.830;23.988;2024-03-07T07:27:33;3.58;;;3.10;;
55146;SDS011;41039;49.830;23.988;2024-03-07T07:29:59;3.88;;;3.28;;
55146;SDS011;41039;49.830;23.988;2024-03-07T07:32:24;4.03;;;3.10;;
55146;SDS011;41039;49.830;23.988;2024-03-07T07:34:49;4.13;;;3.10;;
55146;SDS011;41039;49.830;23.988;2024-03-07T07:37:15;4.73;;;3.27;;
55146;SDS011;41039;49.830;23.988;2024-03-07T07:39:40;4.00;;;3.30;;
55146;SDS011;41039;49.830;23.988;2024-03-07T07:42:05;4.55;;;3.50;;
55146;SDS011;41039;49.830;23.988;2024-03-07T07:44:30;4.75;;;3.90;;
55146;SDS011;41039;49.830;23.988;2024-03-07T07:46:56;3.95;;;3.08;;
55146;SDS011;41039;49.830;23.988;2024-03-07T07:49:21;5.03;;;3.63;;
55146;SDS011;41039;49.830;23.988;2024-03-07T07:51:47;4.47;;;3.45;;
55146;SDS011;41039;49.830;23.988;2024-03-07T07:54:13;3.97;;;3.15;;
55146;SDS011;41039;49.830;23.988;2024-03-07T07:56:38;3.88;;;3.25;;
55146;SDS011;41039;49.830;23.988;2024-03-07T07:59:04;4.13;;;3.28;;
55146;SDS011;41039;49.830;23.988;2024-03-07T08:01:29;3.83;;;3.10;;
55146;SDS011;41039;49.830;23.988;2024-03-07T08:03:54;4.10;;;3.20;;
55146;SDS011;41039;49.830;23.988;2024-03-07T08:06:20;3.90;;;3.08;;
55146;SDS011;41039;49.830;23.988;2024-03-07T08:08:45;4.25;;;3.50;;
55146;SDS011;41039;49.830;23.988;2024-03-07T08:11:11;4.60;;;3.33;;
55146;SDS011;41039;49.830;23.988;2024-03-07T08:13:39;4.63;;;3.47;;
55146;SDS011;41039;49.830;23.988;2024-03-07T08:16:05;4.10;;;3.53;;
55146;SDS011;41039;49.830;23.988;2024-03-07T08:18:30;4.82;;;3.50;;
55146;SDS011;41039;49.830;23.988;2024-03-07T08:20:56;4.80;;;3.40;;
55146;SDS011;41039;49.830;23.988;2024-03-07T08:23:21;4.18;;;3.33;;
55146;SDS011;41039;49.830;23.988;2024-03-07T08:25:50;4.18;;;3.38;;
55146;SDS011;41039;49.830;23.988;2024-03-07T08:28:15;4.03;;;3.47;;
55146;SDS011;41039;49.830;23.988;2024-03-07T08:30:40;5.05;;;3.80;;
55146;SDS011;41039;49.830;23.988;2024-03-07T08:33:06;4.15;;;3.35;;
55146;SDS011;41039;49.830;23.988;2024-03-07T08:35:32;5.80;;;3.85;;
55146;SDS011;41039;49.830;23.988;2024-03-07T08:37:58;3.72;;;3.15;;
55146;SDS011;41039;49.830;23.988;2024-03-07T08:40:24;4.30;;;3.38;;
55146;SDS011;41039;49.830;23.988;2024-03-07T08:42:53;4.65;;;3.35;;
55146;SDS011;41039;49.830;23.988;2024-03-07T08:45:21;3.83;;;3.40;;
55146;SDS011;41039;49.830;23.988;2024-03-07T08:47:47;4.03;;;2.92;;
55146;SDS011;41039;49.830;23.988;2024-03-07T08:50:13;4.30;;;3.67;;
55146;SDS011;41039;49.830;23.988;2024-03-07T08:52:39;4.30;;;3.80;;
55146;SDS011;41039;49.830;23.988;2024-03-07T08:55:05;4.35;;;3.47;;
55146;SDS011;41039;49.830;23.988;2024-03-07T08:57:30;4.00;;;3.28;;
55146;SDS011;41039;49.830;23.988;2024-03-07T08:59:56;4.82;;;3.90;;
55146;SDS011;41039;49.830;23.988;2024-03-07T09:02:21;4.00;;;3.20;;
55146;SDS011;41039;49.830;23.988;2024-03-07T09:04:46;4.43;;;3.50;;
55146;SDS011;41039;49.830;23.988;2024-03-07T09:07:12;4.47;;;3.60;;
55146;SDS011;41039;49.830;23.988;2024-03-07T09:09:39;4.35;;;3.30;;
55146;SDS011;41039;49.830;23.988;2024-03-07T09:12:05;4.57;;;3.50;;
55146;SDS011;41039;49.830;23.988;2024-03-07T09:14:31;4.78;;;3.55;;
55146;SDS011;41039;49.830;23.988;2024-03-07T09:16:56;4.07;;;3.08;;
55146;SDS011;41039;49.830;23.988;2024-03-07T09:19:22;5.00;;;4.07;;
55146;SDS011;41039;49.830;23.988;2024-03-07T09:21:52;6.15;;;4.57;;
55146;SDS011;41039;49.830;23.988;2024-03-07T09:24:18;5.82;;;4.60;;
55146;SDS011;41039;49.830;23.988;2024-03-07T09:26:46;5.57;;;4.38;;
55146;SDS011;41039;49.830;23.988;2024-03-07T09:29:11;5.40;;;4.45;;
55146;SDS011;41039;49.830;23.988;2024-03-07T09:31:37;5.68;;;4.85;;
55146;SDS011;41039;49.830;23.988;2024-03-07T09:34:05;6.13;;;5.35;;
55146;SDS011;41039;49.830;23.988;2024-03-07T09:36:30;6.70;;;5.15;;
55146;SDS011;41039;49.830;23.988;2024-03-07T09:38:56;6.80;;;4.53;;
55146;SDS011;41039;49.830;23.988;2024-03-07T09:41:22;5.20;;;4.45;;
55146;SDS011;41039;49.830;23.988;2024-03-07T09:43:50;5.80;;;4.75;;
55146;SDS011;41039;49.830;23.988;2024-03-07T09:46:16;7.97;;;5.55;;
55146;SDS011;41039;49.830;23.988;2024-03-07T09:48:42;6.00;;;4.85;;
55146;SDS011;41039;49.830;23.988;2024-03-07T09:51:08;7.63;;;5.75;;
55146;SDS011;41039;49.830;23.988;2024-03-07T09:53:38;6.38;;;5.45;;
55146;SDS011;41039;49.830;23.988;2024-03-07T09:56:06;8.57;;;5.82;;
55146;SDS011;41039;49.830;23.988;2024-03-07T09:58:31;7.05;;;5.70;;
55146;SDS011;41039;49.830;23.988;2024-03-07T10:00:58;7.63;;;5.93;;
55146;SDS011;41039;49.830;23.988;2024-03-07T10:03:25;7.43;;;5.90;;
55146;SDS011;41039;49.830;23.988;2024-03-07T10:05:54;8.88;;;5.85;;
55146;SDS011;41039;49.830;23.988;2024-03-07T10:08:19;6.72;;;5.70;;
55146;SDS011;41039;49.830;23.988;2024-03-07T10:10:45;7.35;;;6.30;;
55146;SDS011;41039;49.830;23.988;2024-03-07T10:13:12;7.30;;;6.10;;
55146;SDS011;41039;49.830;23.988;2024-03-07T10:15:38;6.90;;;6.10;;
55146;SDS011;41039;49.830;23.988;2024-03-07T10:18:06;7.30;;;6.20;;
55146;SDS011;41039;49.830;23.988;2024-03-07T10:20:32;7.38;;;5.72;;
55146;SDS011;41039;49.830;23.988;2024-03-07T10:22:57;9.27;;;6.53;;
55146;SDS011;41039;49.830;23.988;2024-03-07T10:25:22;7.73;;;6.23;;
55146;SDS011;41039;49.830;23.988;2024-03-07T10:27:52;6.82;;;6.10;;
55146;SDS011;41039;49.830;23.988;2024-03-07T10:30:17;7.65;;;6.25;;
55146;SDS011;41039;49.830;23.988;2024-03-07T10:33:06;7.90;;;6.10;;
55146;SDS011;41039;49.830;23.988;2024-03-07T10:35:32;6.57;;;5.60;;
55146;SDS011;41039;49.830;23.988;2024-03-07T10:37:57;6.82;;;5.90;;
55146;SDS011;41039;49.830;23.988;2024-03-07T10:40:25;7.53;;;6.18;;
55146;SDS011;41039;49.830;23.988;2024-03-07T10:42:53;6.90;;;5.45;;
55146;SDS011;41039;49.830;23.988;2024-03-07T10:45:21;7.20;;;6.28;;
55146;SDS011;41039;49.830;23.988;2024-03-07T10:47:48;7.95;;;6.50;;
55146;SDS011;41039;49.830;23.988;2024-03-07T10:53:14;7.45;;;6.20;;
55146;SDS011;41039;49.830;23.988;2024-03-07T11:00:53;7.40;;;6.28;;
55146;SDS011;41039;49.830;23.988;2024-03-07T11:03:20;7.10;;;6.25;;
55146;SDS011;41039;49.830;23.988;2024-03-07T11:05:45;6.65;;;5.78;;
55146;SDS011;41039;49.830;23.988;2024-03-07T11:08:11;7.88;;;6.47;;
55146;SDS011;41039;49.830;23.988;2024-03-07T11:10:37;7.13;;;5.65;;
55146;SDS011;41039;49.830;23.988;2024-03-07T11:13:11;6.15;;;5.32;;
55146;SDS011;41039;49.830;23.988;2024-03-07T11:15:39;7.00;;;5.68;;
55146;SDS011;41039;49.830;23.988;2024-03-07T11:18:05;5.82;;;5.22;;
55146;SDS011;41039;49.830;23.988;2024-03-07T11:20:36;6.90;;;5.38;;
55146;SDS011;41039;49.830;23.988;2024-03-07T11:23:24;6.82;;;5.88;;
55146;SDS011;41039;49.830;23.988;2024-03-07T11:25:47;6.38;;;5.53;;
55146;SDS011;41039;49.830;23.988;2024-03-07T11:28:13;7.50;;;5.38;;
55146;SDS011;41039;49.830;23.988;2024-03-07T11:30:47;7.10;;;5.32;;
55146;SDS011;41039;49.830;23.988;2024-03-07T11:33:13;7.13;;;6.27;;
55146;SDS011;41039;49.830;23.988;2024-03-07T11:35:39;5.93;;;5.10;;
55146;SDS011;41039;49.830;23.988;2024-03-07T11:38:06;7.30;;;5.10;;
55146;SDS011;41039;49.830;23.988;2024-03-07T11:42:57;5.80;;;5.13;;
55146;SDS011;41039;49.830;23.988;2024-03-07T11:45:25;7.03;;;4.80;;
55146;SDS011;41039;49.830;23.988;2024-03-07T11:47:51;7.53;;;5.07;;
55146;SDS011;41039;49.830;23.988;2024-03-07T11:50:22;6.78;;;4.50;;
55146;SDS011;41039;49.830;23.988;2024-03-07T11:52:50;5.75;;;4.70;;
55146;SDS011;41039;49.830;23.988;2024-03-07T11:55:15;5.50;;;4.50;;
55146;SDS011;41039;49.830;23.988;2024-03-07T11:57:41;7.72;;;4.43;;
55146;SDS011;41039;49.830;23.988;2024-03-07T12:00:09;4.85;;;4.15;;
55146;SDS011;41039;49.830;23.988;2024-03-07T12:02:37;4.55;;;3.83;;
55146;SDS011;41039;49.830;23.988;2024-03-07T12:05:02;5.90;;;4.50;;
55146;SDS011;41039;49.830;23.988;2024-03-07T12:07:30;5.07;;;4.22;;
55146;SDS011;41039;49.830;23.988;2024-03-07T12:09:55;5.45;;;4.15;;
55146;SDS011;41039;49.830;23.988;2024-03-07T12:12:21;4.47;;;4.07;;
55146;SDS011;41039;49.830;23.988;2024-03-07T12:14:47;4.75;;;3.97;;
55146;SDS011;41039;49.830;23.988;2024-03-07T12:17:12;5.10;;;4.13;;
55146;SDS011;41039;49.830;23.988;2024-03-07T12:19:38;4.32;;;3.88;;
55146;SDS011;41039;49.830;23.988;2024-03-07T12:22:07;6.85;;;3.70;;
55146;SDS011;41039;49.830;23.988;2024-03-07T12:27:05;5.95;;;3.75;;
55146;SDS011;41039;49.830;23.988;2024-03-07T12:29:31;5.55;;;3.85;;
55146;SDS011;41039;49.830;23.988;2024-03-07T12:31:56;5.23;;;3.50;;
55146;SDS011;41039;49.830;23.988;2024-03-07T12:34:22;5.63;;;4.13;;
55146;SDS011;41039;49.830;23.988;2024-03-07T12:36:51;4.65;;;3.50;;
55146;SDS011;41039;49.830;23.988;2024-03-07T12:39:24;4.45;;;3.83;;
55146;SDS011;41039;49.830;23.988;2024-03-07T12:41:50;4.25;;;3.28;;
55146;SDS011;41039;49.830;23.988;2024-03-07T12:44:18;4.45;;;3.40;;
55146;SDS011;41039;49.830;23.988;2024-03-07T12:46:53;5.45;;;3.65;;
55146;SDS011;41039;49.830;23.988;2024-03-07T12:49:21;3.90;;;3.15;;
55146;SDS011;41039;49.830;23.988;2024-03-07T12:51:49;4.47;;;3.55;;
55146;SDS011;41039;49.830;23.988;2024-03-07T12:54:15;4.50;;;3.40;;
55146;SDS011;41039;49.830;23.988;2024-03-07T12:56:40;4.50;;;3.72;;
55146;SDS011;41039;49.830;23.988;2024-03-07T12:59:06;4.72;;;3.97;;
55146;SDS011;41039;49.830;23.988;2024-03-07T13:01:37;4.63;;;3.67;;
55146;SDS011;41039;49.830;23.988;2024-03-07T13:04:09;3.75;;;3.25;;
55146;SDS011;41039;49.830;23.988;2024-03-07T13:06:35;5.80;;;3.58;;
55146;SDS011;41039;49.830;23.988;2024-03-07T13:09:00;4.00;;;3.42;;
55146;SDS011;41039;49.830;23.988;2024-03-07T13:11:26;3.85;;;3.30;;
55146;SDS011;41039;49.830;23.988;2024-03-07T13:13:55;3.65;;;2.95;;
55146;SDS011;41039;49.830;23.988;2024-03-07T13:16:21;4.55;;;3.67;;
55146;SDS011;41039;49.830;23.988;2024-03-07T13:18:46;3.90;;;3.30;;
55146;SDS011;41039;49.830;23.988;2024-03-07T13:21:12;4.30;;;3.30;;
55146;SDS011;41039;49.830;23.988;2024-03-07T13:23:42;3.90;;;3.00;;
55146;SDS011;41039;49.830;23.988;2024-03-07T13:26:07;5.07;;;3.95;;
55146;SDS011;41039;49.830;23.988;2024-03-07T13:28:41;4.35;;;3.05;;
55146;SDS011;41039;49.830;23.988;2024-03-07T13:31:06;4.15;;;3.72;;
55146;SDS011;41039;49.830;23.988;2024-03-07T13:33:32;4.63;;;3.50;;
55146;SDS011;41039;49.830;23.988;2024-03-07T13:35:58;5.72;;;4.00;;
55146;SDS011;41039;49.830;23.988;2024-03-07T13:38:26;5.03;;;3.42;;
55146;SDS011;41039;49.830;23.988;2024-03-07T13:40:51;5.20;;;3.38;;
55146;SDS011;41039;49.830;23.988;2024-03-07T13:43:18;3.88;;;3.15;;
55146;SDS011;41039;49.830;23.988;2024-03-07T13:45:43;4.32;;;3.10;;
55146;SDS011;41039;49.830;23.988;2024-03-07T13:48:09;4.68;;;3.50;;
55146;SDS011;41039;49.830;23.988;2024-03-07T13:50:44;4.05;;;3.38;;
55146;SDS011;41039;49.830;23.988;2024-03-07T13:53:09;3.88;;;3.03;;
55146;SDS011;41039;49.830;23.988;2024-03-07T13:56:24;4.70;;;3.60;;
55146;SDS011;41039;49.830;23.988;2024-03-07T14:00:53;4.28;;;3.53;;
55146;SDS011;41039;49.830;23.988;2024-03-07T14:05:57;4.00;;;3.25;;
55146;SDS011;41039;49.830;23.988;2024-03-07T14:13:59;5.43;;;3.30;;
55146;SDS011;41039;49.830;23.988;2024-03-07T14:16:40;4.25;;;3.65;;
55146;SDS011;41039;49.830;23.988;2024-03-07T14:32:18;4.07;;;3.20;;
55146;SDS011;41039;49.830;23.988;2024-03-07T14:40:30;3.72;;;2.95;;
55146;SDS011;41039;49.830;23.988;2024-03-07T14:42:56;4.40;;;3.47;;
55146;SDS011;41039;49.830;23.988;2024-03-07T14:45:26;3.92;;;3.28;;
55146;SDS011;41039;49.830;23.988;2024-03-07T14:47:52;4.38;;;3.35;;
55146;SDS011;41039;49.830;23.988;2024-03-07T14:50:18;3.80;;;3.22;;
55146;SDS011;41039;49.830;23.988;2024-03-07T14:52:45;3.72;;;3.03;;
55146;SDS011;41039;49.830;23.988;2024-03-07T14:55:10;4.53;;;3.67;;
55146;SDS011;41039;49.830;23.988;2024-03-07T14:57:39;3.90;;;3.30;;
55146;SDS011;41039;49.830;23.988;2024-03-07T15:00:04;5.15;;;3.60;;
55146;SDS011;41039;49.830;23.988;2024-03-07T15:02:39;4.78;;;3.28;;
55146;SDS011;41039;49.830;23.988;2024-03-07T15:05:04;5.68;;;3.42;;
55146;SDS011;41039;49.830;23.988;2024-03-07T15:07:30;4.95;;;3.63;;
55146;SDS011;41039;49.830;23.988;2024-03-07T15:09:55;5.13;;;3.40;;
55146;SDS011;41039;49.830;23.988;2024-03-07T15:12:23;4.25;;;3.45;;